Time;durP1;ratioP1;P1;durP2;ratioP2;P2;SDS_P1;SDS_P2;PMS_P1;PMS_P2;Temp;Humidity;BMP_temperature;BMP_pressure;BME280_temperature;BME280_humidity;BME280_pressure;Samples;Min_cycle;Max_cycle;Signal;HPM_P1;HPM_P2
2022/06/24 00:00:04;;;;;;;1.20;0.73;;;;;;;14.57;100.00;98846.09;7398942;19;20018;-85
2022/06/24 00:02:31;;;;;;;5.18;0.98;;;;;;;14.52;100.00;98848.94;7393932;19;20021;-85
2022/06/24 00:05:00;;;;;;;0.68;0.50;;;;;;;14.44;100.00;98843.94;7393528;19;20471;-85
2022/06/24 00:07:26;;;;;;;2.72;0.60;;;;;;;14.45;100.00;98833.50;7390607;19;20022;-85
2022/06/24 00:09:52;;;;;;;0.55;0.55;;;;;;;14.41;100.00;98838.63;7395870;19;20366;-85
2022/06/24 00:12:24;;;;;;;0.75;0.75;;;;;;;14.27;100.00;98829.31;7393679;19;20035;-85
2022/06/24 00:15:01;;;;;;;0.20;0.20;;;;;;;14.19;100.00;98833.25;7391658;19;20503;-85
2022/06/24 00:17:29;;;;;;;1.63;0.60;;;;;;;14.10;100.00;98830.78;7390350;19;20014;-85
2022/06/24 00:19:57;;;;;;;1.85;0.55;;;;;;;14.06;100.00;98827.53;7395827;19;20002;-85
2022/06/24 00:22:25;;;;;;;1.05;0.38;;;;;;;14.01;100.00;98817.16;7392501;19;20041;-84
2022/06/24 00:25:10;;;;;;;3.67;1.08;;;;;;;13.97;100.00;98819.50;7392436;19;20502;-84
2022/06/24 00:27:37;;;;;;;0.90;0.82;;;;;;;13.88;100.00;98823.34;7392206;19;20014;-84
2022/06/24 00:30:15;;;;;;;3.40;1.65;;;;;;;13.85;100.00;98812.47;7397429;19;20039;-84
2022/06/24 00:32:43;;;;;;;2.60;1.13;;;;;;;13.77;100.00;98819.94;7393648;19;20046;-85
2022/06/24 00:35:13;;;;;;;1.50;1.00;;;;;;;13.65;100.00;98808.81;7393370;19;20017;-84
2022/06/24 00:37:41;;;;;;;0.40;0.40;;;;;;;13.60;100.00;98792.84;7391515;19;20014;-85
2022/06/24 00:40:09;;;;;;;2.78;0.88;;;;;;;13.67;100.00;98789.47;7397235;19;20089;-85
2022/06/24 00:42:38;;;;;;;1.90;0.88;;;;;;;13.67;100.00;98786.69;7392473;19;20026;-84
2022/06/24 00:45:24;;;;;;;2.88;0.82;;;;;;;13.65;100.00;98785.69;7390941;19;20007;-85
2022/06/24 00:47:51;;;;;;;0.40;0.40;;;;;;;13.69;100.00;98781.31;7391288;19;20010;-85
2022/06/24 00:50:23;;;;;;;1.48;0.60;;;;;;;13.65;100.00;98780.84;7397068;19;20011;-85
2022/06/24 00:52:56;;;;;;;0.70;0.70;;;;;;;13.58;100.00;98775.81;7393192;19;20487;-85
2022/06/24 00:55:27;;;;;;;1.02;1.00;;;;;;;13.52;100.00;98768.75;7399951;19;20006;-85
2022/06/24 00:57:55;;;;;;;2.15;0.63;;;;;;;13.49;100.00;98773.34;7397242;19;20049;-84
2022/06/24 01:00:26;;;;;;;1.27;0.60;;;;;;;13.42;100.00;98768.34;7399131;19;20033;-85
2022/06/24 01:02:56;;;;;;;;;;;;;;;13.41;100.00;98766.81;7400305;19;20029;-85
2022/06/24 01:05:22;;;;;;;0.63;0.47;;;;;;;13.34;100.00;98770.16;7399070;19;19922;-85
2022/06/24 01:07:49;;;;;;;2.85;1.08;;;;;;;13.28;100.00;98758.28;7396986;19;20014;-85
2022/06/24 01:10:15;;;;;;;2.15;1.13;;;;;;;13.27;100.00;98765.16;7404213;19;20015;-85
2022/06/24 01:12:42;;;;;;;3.88;1.00;;;;;;;13.23;100.00;98758.34;7397869;19;20366;-84
2022/06/24 01:15:08;;;;;;;2.70;1.08;;;;;;;13.21;100.00;98763.69;7398436;19;20014;-85
2022/06/24 01:17:36;;;;;;;4.85;0.95;;;;;;;13.17;100.00;98755.56;7396573;19;20014;-85
2022/06/24 01:20:05;;;;;;;4.88;1.10;;;;;;;13.14;100.00;98764.25;7401481;19;20034;-85
2022/06/24 01:22:32;;;;;;;4.82;2.05;;;;;;;13.13;100.00;98760.69;7399547;19;20022;-85
2022/06/24 01:24:58;;;;;;;3.75;0.77;;;;;;;13.06;100.00;98758.44;7399353;19;20360;-85
2022/06/24 01:27:24;;;;;;;0.90;0.90;;;;;;;13.02;100.00;98763.53;7397061;19;20007;-84
2022/06/24 01:29:50;;;;;;;1.02;0.93;;;;;;;13.03;100.00;98758.69;7402789;19;20015;-85
2022/06/24 01:32:17;;;;;;;2.72;0.88;;;;;;;13.01;100.00;98756.44;7399372;19;20030;-85
2022/06/24 01:34:43;;;;;;;2.30;1.23;;;;;;;12.97;100.00;98763.56;7402699;19;20039;-85
2022/06/24 01:37:10;;;;;;;1.38;1.02;;;;;;;12.94;100.00;98757.75;7395488;19;20013;-85
2022/06/24 01:39:37;;;;;;;2.22;0.60;;;;;;;12.90;100.00;98756.50;7402382;19;20491;-85
2022/06/24 01:42:03;;;;;;;1.45;1.00;;;;;;;12.86;100.00;98747.66;7398919;19;20486;-84
2022/06/24 01:44:30;;;;;;;0.75;0.73;;;;;;;12.80;100.00;98746.91;7398768;19;20011;-85
2022/06/24 01:46:56;;;;;;;1.63;0.80;;;;;;;12.73;100.00;98753.06;7396281;19;20014;-85
2022/06/24 01:49:22;;;;;;;0.85;0.75;;;;;;;12.69;100.00;98747.72;7397187;19;20015;-84
2022/06/24 01:51:52;;;;;;;0.85;0.57;;;;;;;12.65;100.00;98752.06;7395909;19;20018;-85
2022/06/24 01:54:18;;;;;;;2.00;0.73;;;;;;;12.66;100.00;98742.44;7394669;19;20018;-85
2022/06/24 01:56:44;;;;;;;0.25;0.25;;;;;;;12.65;100.00;98736.06;7395422;19;20038;-85
2022/06/24 01:59:11;;;;;;;4.82;0.85;;;;;;;12.65;100.00;98738.09;7399024;19;20014;-85
2022/06/24 02:01:38;;;;;;;10.73;1.05;;;;;;;12.57;100.00;98739.94;7396044;19;20019;-85
2022/06/24 02:04:04;;;;;;;5.70;0.57;;;;;;;12.61;100.00;98740.41;7396545;19;20048;-85
2022/06/24 02:06:30;;;;;;;0.63;0.60;;;;;;;12.58;100.00;98736.63;7394412;19;20025;-85
2022/06/24 02:08:56;;;;;;;1.55;0.73;;;;;;;12.58;100.00;98731.03;7397082;19;20011;-84
2022/06/24 02:14:09;;;;;;;1.17;1.13;;;;;;;12.50;100.00;98727.28;7395174;19;20579;-85
2022/06/24 02:16:37;;;;;;;0.40;0.30;;;;;;;12.48;100.00;98731.84;7393340;19;20014;-84
2022/06/24 02:19:04;;;;;;;9.27;0.88;;;;;;;12.49;100.00;98716.63;7398178;19;20029;-85
2022/06/24 02:21:30;;;;;;;2.13;1.30;;;;;;;12.44;100.00;98714.63;7396001;19;20014;-85
2022/06/24 02:23:56;;;;;;;1.15;0.88;;;;;;;12.40;100.00;98725.31;7395678;19;20050;-85
2022/06/24 02:26:25;;;;;;;0.85;0.70;;;;;;;12.39;100.00;98707.78;7393566;19;20038;-85
2022/06/24 02:28:52;;;;;;;1.60;1.00;;;;;;;12.37;100.00;98715.16;7395665;19;20024;-84
2022/06/24 02:31:18;;;;;;;5.35;1.58;;;;;;;12.33;100.00;98714.66;7393518;19;20018;-85
2022/06/24 02:33:46;;;;;;;0.88;0.88;;;;;;;12.32;100.00;98702.00;7395422;19;20023;-85
2022/06/24 02:36:13;;;;;;;0.90;0.80;;;;;;;12.25;100.00;98696.94;7392804;19;20018;-84
2022/06/24 02:38:39;;;;;;;1.75;1.63;;;;;;;12.24;100.00;98695.41;7396343;19;20042;-85
2022/06/24 02:41:05;;;;;;;0.85;0.85;;;;;;;12.22;100.00;98692.38;7394651;19;20015;-85
2022/06/24 02:43:36;;;;;;;1.42;0.82;;;;;;;12.23;100.00;98696.72;7395215;19;20034;-85
2022/06/24 02:46:13;;;;;;;;;;;;;;;12.16;100.00;98696.00;7395763;19;20018;-84
2022/06/24 02:48:42;;;;;;;1.60;0.80;;;;;;;12.12;100.00;98692.72;7393800;19;19923;-85
2022/06/24 02:51:12;;;;;;;0.63;0.63;;;;;;;12.22;100.00;98686.81;7392513;19;20025;-85
2022/06/24 02:53:39;;;;;;;1.98;1.23;;;;;;;12.24;100.00;98685.03;7392440;19;20014;-84
2022/06/24 02:56:07;;;;;;;1.98;1.10;;;;;;;12.27;100.00;98691.63;7394091;19;20046;-85
2022/06/24 02:58:34;;;;;;;0.45;0.43;;;;;;;12.25;100.00;98691.38;7397479;19;20499;-85
2022/06/24 03:01:02;;;;;;;1.45;0.93;;;;;;;12.25;100.00;98686.56;7395131;19;20348;-84
2022/06/24 03:03:28;;;;;;;1.45;1.35;;;;;;;12.27;100.00;98692.38;7395709;19;20038;-85
2022/06/24 03:05:55;;;;;;;1.73;0.65;;;;;;;12.25;100.00;98683.75;7394111;19;20018;-85
2022/06/24 03:08:26;;;;;;;1.00;0.88;;;;;;;12.19;100.00;98685.84;7392989;19;20025;-85
2022/06/24 03:10:53;;;;;;;0.70;0.70;;;;;;;12.17;100.00;98689.13;7393202;19;20026;-85
2022/06/24 03:13:19;;;;;;;1.15;0.60;;;;;;;12.16;100.00;98678.47;7393503;19;20015;-84
2022/06/24 03:15:48;;;;;;;0.50;0.50;;;;;;;12.21;100.00;98686.06;7392515;19;20472;-85
2022/06/24 03:18:15;;;;;;;1.75;1.58;;;;;;;12.18;100.00;98676.69;7394760;19;20019;-84
2022/06/24 03:20:41;;;;;;;3.65;0.93;;;;;;;12.11;100.00;98682.81;7394661;19;20018;-84
2022/06/24 03:23:07;;;;;;;1.23;0.70;;;;;;;12.06;100.00;98691.94;7395296;19;20032;-84
2022/06/24 03:25:34;;;;;;;0.57;0.57;;;;;;;12.03;100.00;98683.84;7395104;19;20011;-85
2022/06/24 03:28:04;;;;;;;1.48;0.90;;;;;;;12.10;100.00;98675.72;7393485;19;20074;-84
2022/06/24 03:30:34;;;;;;;1.35;1.10;;;;;;;12.02;100.00;98679.53;7392218;19;20114;-85
2022/06/24 03:33:03;;;;;;;1.05;1.05;;;;;;;12.01;100.00;98678.81;7393873;19;20018;-85
2022/06/24 03:35:30;;;;;;;1.30;0.60;;;;;;;12.03;100.00;98681.06;7392002;19;20501;-85
2022/06/24 03:37:56;;;;;;;2.58;1.15;;;;;;;12.11;100.00;98682.03;7392738;19;20014;-85
2022/06/24 03:40:23;;;;;;;0.55;0.55;;;;;;;12.11;100.00;98666.06;7394643;19;20468;-85
2022/06/24 03:42:49;;;;;;;3.63;0.82;;;;;;;12.10;100.00;98675.72;7394247;19;20490;-84
2022/06/24 03:45:15;;;;;;;4.13;1.25;;;;;;;12.08;100.00;98675.44;7394361;19;20022;-85
2022/06/24 03:47:41;;;;;;;1.38;0.70;;;;;;;12.05;100.00;98668.13;7390335;19;20371;-85
2022/06/24 03:50:08;;;;;;;1.20;1.10;;;;;;;12.07;100.00;98671.16;7397775;19;20389;-85
2022/06/24 03:52:34;;;;;;;0.70;0.70;;;;;;;12.03;100.00;98665.09;7394852;19;20027;-84
2022/06/24 03:55:00;;;;;;;0.90;0.40;;;;;;;12.01;100.00;98670.44;7392635;19;20010;-85
2022/06/24 03:57:26;;;;;;;4.30;0.55;;;;;;;11.98;100.00;98671.44;7393223;19;20060;-85
2022/06/24 03:59:52;;;;;;;0.82;0.70;;;;;;;11.97;100.00;98669.94;7396656;19;20090;-84
2022/06/24 04:02:19;;;;;;;1.92;1.00;;;;;;;12.00;100.00;98657.75;7393577;19;20022;-85
2022/06/24 04:04:45;;;;;;;2.85;1.17;;;;;;;12.05;100.00;98664.56;7393685;19;20362;-84
2022/06/24 04:07:11;;;;;;;3.47;0.93;;;;;;;12.06;100.00;98660.53;7392971;19;20468;-85
2022/06/24 04:09:37;;;;;;;2.38;0.80;;;;;;;12.08;100.00;98655.91;7395693;19;20018;-85
2022/06/24 04:12:03;;;;;;;2.75;0.45;;;;;;;12.07;100.00;98660.00;7391886;19;20023;-84
2022/06/24 04:17:14;;;;;;;0.95;0.30;;;;;;;11.98;100.00;98646.34;7391308;19;20015;-85
2022/06/24 04:19:40;;;;;;;0.95;0.68;;;;;;;11.96;100.00;98648.88;7394513;19;20081;-85
2022/06/24 04:22:06;;;;;;;1.13;0.85;;;;;;;12.01;100.00;98658.50;7394002;19;20022;-84
2022/06/24 04:24:33;;;;;;;0.73;0.73;;;;;;;12.04;100.00;98654.69;7393065;19;20029;-84
2022/06/24 04:26:59;;;;;;;1.48;1.02;;;;;;;12.06;100.00;98655.69;7390533;19;20471;-84
2022/06/24 04:29:25;;;;;;;2.97;1.00;;;;;;;12.01;100.00;98645.31;7390915;19;20014;-85
2022/06/24 04:31:51;;;;;;;1.67;0.75;;;;;;;12.03;100.00;98647.59;7391176;19;20049;-85
2022/06/24 04:34:17;;;;;;;2.22;0.80;;;;;;;12.06;100.00;98646.56;7394381;19;20019;-84
2022/06/24 04:36:43;;;;;;;1.85;0.75;;;;;;;12.15;100.00;98643.44;7390789;19;20329;-84
2022/06/24 04:39:10;;;;;;;0.70;0.70;;;;;;;12.19;100.00;98636.31;7395271;19;20014;-84
2022/06/24 04:41:36;;;;;;;1.05;0.95;;;;;;;12.22;100.00;98644.94;7392440;19;20356;-84
2022/06/24 04:44:03;;;;;;;3.25;1.23;;;;;;;12.23;100.00;98640.88;7391967;19;20023;-85
2022/06/24 04:46:29;;;;;;;0.60;0.60;;;;;;;12.23;100.00;98633.28;7391252;19;20031;-84
2022/06/24 04:48:55;;;;;;;1.30;0.85;;;;;;;12.23;100.00;98640.88;7393432;19;20021;-85
2022/06/24 04:51:21;;;;;;;1.58;1.48;;;;;;;12.22;100.00;98642.91;7393181;19;20019;-85
2022/06/24 04:53:47;;;;;;;2.47;1.48;;;;;;;12.24;100.00;98645.19;7389772;19;20126;-85
2022/06/24 04:56:13;;;;;;;1.13;0.75;;;;;;;12.23;100.00;98644.44;7391964;19;20014;-85
2022/06/24 04:58:39;;;;;;;0.65;0.65;;;;;;;12.29;100.00;98642.38;7394275;19;20027;-84
2022/06/24 05:01:05;;;;;;;1.20;0.85;;;;;;;12.29;100.00;98641.59;7393300;19;20022;-85
2022/06/24 05:03:31;;;;;;;0.93;0.47;;;;;;;12.36;100.00;98646.66;7392730;19;20014;-85
2022/06/24 05:05:58;;;;;;;0.70;0.70;;;;;;;12.41;100.00;98643.06;7391488;19;20014;-84
2022/06/24 05:08:24;;;;;;;1.13;1.05;;;;;;;12.47;100.00;98646.59;7390864;19;20010;-85
2022/06/24 05:10:50;;;;;;;1.90;0.90;;;;;;;12.48;100.00;98631.31;7389137;19;20401;-85
2022/06/24 05:13:16;;;;;;;2.17;1.40;;;;;;;12.45;100.00;98640.75;7390006;19;20030;-84
2022/06/24 05:15:42;;;;;;;0.50;0.38;;;;;;;12.52;100.00;98635.34;7390126;19;20086;-85
2022/06/24 05:18:08;;;;;;;0.52;0.50;;;;;;;12.63;100.00;98634.53;7390248;19;20026;-84
2022/06/24 05:20:35;;;;;;;0.70;0.60;;;;;;;12.74;100.00;98631.66;7390095;19;20017;-85
2022/06/24 05:23:01;;;;;;;1.80;1.10;;;;;;;12.90;100.00;98630.75;7392326;19;20041;-85
2022/06/24 05:25:27;;;;;;;1.65;0.93;;;;;;;13.08;100.00;98630.09;7389910;19;20015;-85
2022/06/24 05:27:53;;;;;;;3.35;0.85;;;;;;;13.27;100.00;98622.56;7389549;19;20017;-85
2022/06/24 05:30:19;;;;;;;2.25;0.75;;;;;;;13.42;100.00;98628.50;7395140;19;20015;-85
2022/06/24 05:32:45;;;;;;;4.43;1.20;;;;;;;13.57;100.00;98623.25;7391971;19;20026;-84
2022/06/24 05:35:12;;;;;;;1.13;1.10;;;;;;;13.69;100.00;98619.03;7392243;19;20014;-86
2022/06/24 05:37:39;;;;;;;0.80;0.80;;;;;;;13.80;100.00;98622.97;7388032;19;20015;-85
2022/06/24 05:40:06;;;;;;;2.47;1.55;;;;;;;13.88;100.00;98621.13;7399585;19;20082;-85
2022/06/24 05:42:33;;;;;;;4.72;1.20;;;;;;;14.01;100.00;98624.00;7397092;19;20383;-85
2022/06/24 05:44:59;;;;;;;5.22;1.33;;;;;;;14.12;100.00;98618.25;7398864;19;20345;-85
2022/06/24 05:47:25;;;;;;;2.33;1.50;;;;;;;14.21;100.00;98626.25;7394580;19;20018;-85
2022/06/24 05:49:52;;;;;;;1.48;1.38;;;;;;;14.34;100.00;98624.31;7398571;19;20014;-85
2022/06/24 05:55:02;;;;;;;5.88;1.45;;;;;;;14.41;100.00;98622.94;7395646;19;20027;-85
2022/06/24 05:55:04;;;;;;;0.77;0.63;;;;;;;14.50;100.00;98622.56;7393159;19;20014;-85
2022/06/24 05:57:30;;;;;;;14.70;1.58;;;;;;;14.58;100.00;98612.25;7395976;19;20037;-85
2022/06/24 05:59:56;;;;;;;4.05;1.38;;;;;;;14.65;100.00;98610.88;7402430;19;20018;-85
2022/06/24 06:02:23;;;;;;;2.22;1.42;;;;;;;14.74;100.00;98604.88;7397961;19;20384;-85
2022/06/24 06:04:49;;;;;;;4.97;1.45;;;;;;;14.86;100.00;98609.75;7396983;19;20018;-85
2022/06/24 06:07:16;;;;;;;3.13;1.48;;;;;;;15.03;100.00;98610.22;7395441;19;20010;-85
2022/06/24 06:09:42;;;;;;;2.85;1.98;;;;;;;15.13;100.00;98611.34;7395922;19;20364;-85
2022/06/24 06:12:08;;;;;;;2.10;1.10;;;;;;;15.27;100.00;98609.28;7393159;19;20498;-85
2022/06/24 06:14:34;;;;;;;4.28;1.58;;;;;;;15.45;100.00;98610.50;7394713;19;20023;-85
2022/06/24 06:17:00;;;;;;;3.90;1.35;;;;;;;15.57;100.00;98609.03;7394209;19;20522;-86
2022/06/24 06:19:26;;;;;;;8.23;1.73;;;;;;;15.73;100.00;98610.72;7397888;19;20021;-85
2022/06/24 06:21:53;;;;;;;2.25;1.10;;;;;;;15.90;100.00;98608.34;7395626;19;20041;-85
2022/06/24 06:24:19;;;;;;;2.67;1.42;;;;;;;16.11;100.00;98609.19;7395816;19;20015;-85
2022/06/24 06:26:48;;;;;;;15.18;1.52;;;;;;;16.30;100.00;98612.59;7394202;19;20464;-86
2022/06/24 06:29:14;;;;;;;2.72;1.10;;;;;;;16.40;100.00;98599.56;7397626;19;20022;-85
2022/06/24 06:31:40;;;;;;;4.03;1.15;;;;;;;16.52;100.00;98597.28;7394762;19;20019;-85
2022/06/24 06:34:06;;;;;;;2.78;1.85;;;;;;;16.63;100.00;98592.13;7397216;19;20095;-85
2022/06/24 06:36:32;;;;;;;1.55;0.73;;;;;;;16.78;100.00;98582.34;7393247;19;20026;-86
2022/06/24 06:38:58;;;;;;;3.70;1.55;;;;;;;16.91;100.00;98590.72;7396999;19;20018;-85
2022/06/24 06:41:25;;;;;;;12.35;1.85;;;;;;;16.99;100.00;98580.28;7395666;19;20345;-85
2022/06/24 06:43:51;;;;;;;3.40;1.63;;;;;;;17.05;100.00;98578.06;7396603;19;20503;-85
2022/06/24 06:46:17;;;;;;;4.90;2.22;;;;;;;17.15;100.00;98576.28;7394325;19;20372;-86
2022/06/24 06:48:43;;;;;;;14.20;4.85;;;;;;;17.23;100.00;98582.72;7394105;19;20018;-85
2022/06/24 06:51:09;;;;;;;11.60;4.20;;;;;;;17.29;100.00;98574.88;7392716;19;20040;-85
2022/06/24 06:53:36;;;;;;;9.65;2.92;;;;;;;17.33;100.00;98569.63;7393535;19;20022;-85
2022/06/24 06:56:02;;;;;;;17.20;2.78;;;;;;;17.37;100.00;98572.84;7392327;19;20402;-86
2022/06/24 06:58:28;;;;;;;9.10;3.22;;;;;;;17.41;100.00;98573.28;7397992;19;20014;-85
2022/06/24 07:00:55;;;;;;;17.10;3.45;;;;;;;17.52;100.00;98587.06;7397066;19;20035;-86
2022/06/24 07:03:21;;;;;;;11.75;3.25;;;;;;;17.62;100.00;98579.63;7394972;19;20021;-85
2022/06/24 07:05:48;;;;;;;14.82;4.53;;;;;;;17.62;100.00;98585.25;7394352;19;20085;-86
2022/06/24 07:08:15;;;;;;;19.30;6.13;;;;;;;17.60;100.00;98579.41;7393498;19;20006;-86
2022/06/24 07:10:43;;;;;;;17.80;3.70;;;;;;;17.64;100.00;98582.63;7393901;19;20026;-85
2022/06/24 07:13:10;;;;;;;19.15;3.78;;;;;;;17.65;100.00;98584.13;7392090;19;20021;-85
2022/06/24 07:15:37;;;;;;;9.68;4.32;;;;;;;17.73;100.00;98579.31;7392119;19;20037;-86
2022/06/24 07:18:03;;;;;;;12.68;3.67;;;;;;;17.79;100.00;98576.31;7394185;19;20011;-85
2022/06/24 07:20:30;;;;;;;17.23;4.35;;;;;;;17.87;100.00;98577.09;7395106;19;20015;-85
2022/06/24 07:22:56;;;;;;;19.38;4.95;;;;;;;17.92;100.00;98570.56;7395118;19;20014;-85
2022/06/24 07:25:22;;;;;;;21.85;4.88;;;;;;;17.97;100.00;98569.66;7393720;19;20471;-86
2022/06/24 07:27:48;;;;;;;13.88;4.32;;;;;;;18.10;100.00;98573.06;7393474;19;20018;-85
2022/06/24 07:30:15;;;;;;;13.07;3.33;;;;;;;18.19;100.00;98564.06;7399261;19;20018;-85
2022/06/24 07:32:41;;;;;;;8.80;3.25;;;;;;;18.32;100.00;98571.63;7395013;19;20031;-86
2022/06/24 07:35:07;;;;;;;6.70;1.98;;;;;;;18.42;100.00;98569.03;7395151;19;20022;-85
2022/06/24 07:37:34;;;;;;;10.65;3.53;;;;;;;18.47;100.00;98570.94;7393300;19;20018;-86
2022/06/24 07:40:00;;;;;;;8.75;2.50;;;;;;;18.55;100.00;98568.88;7398440;19;20026;-85
2022/06/24 07:42:26;;;;;;;5.57;3.17;;;;;;;18.62;100.00;98568.16;7394487;19;20014;-85
2022/06/24 07:44:52;;;;;;;4.43;1.40;;;;;;;18.65;100.00;98564.19;7394450;19;20014;-85
2022/06/24 07:47:18;;;;;;;6.63;2.00;;;;;;;18.62;100.00;98576.63;7391461;19;20010;-85
2022/06/24 07:49:44;;;;;;;8.07;2.25;;;;;;;18.60;100.00;98577.16;7395139;19;20022;-85
2022/06/24 07:52:10;;;;;;;9.73;2.50;;;;;;;18.59;100.00;98560.81;7392671;19;20021;-85
2022/06/24 07:54:38;;;;;;;7.03;2.47;;;;;;;18.59;100.00;98560.81;7391076;19;20019;-85
2022/06/24 07:57:05;;;;;;;6.07;1.92;;;;;;;18.50;100.00;98555.72;7390842;19;20015;-86
2022/06/24 07:59:36;;;;;;;10.05;2.97;;;;;;;18.54;100.00;98554.03;7395578;19;20014;-85
2022/06/24 08:02:06;;;;;;;12.20;2.03;;;;;;;18.53;100.00;98554.59;7390567;19;20052;-84
2022/06/24 08:04:32;;;;;;;5.40;2.03;;;;;;;18.63;100.00;98559.13;7393734;19;20018;-85
2022/06/24 08:06:59;;;;;;;6.18;1.52;;;;;;;18.66;100.00;98551.63;7392386;19;20102;-85
2022/06/24 08:09:30;;;;;;;5.63;2.40;;;;;;;18.73;100.00;98559.34;7393585;19;20038;-86
2022/06/24 08:11:56;;;;;;;3.55;1.70;;;;;;;18.76;100.00;98558.19;7390804;19;20019;-85
2022/06/24 08:14:22;;;;;;;4.20;2.15;;;;;;;18.76;100.00;98561.00;7392513;19;20014;-85
2022/06/24 08:16:48;;;;;;;5.78;2.35;;;;;;;18.77;100.00;98554.06;7390103;19;20010;-85
2022/06/24 08:19:15;;;;;;;7.68;2.78;;;;;;;18.85;100.00;98554.81;7394671;19;20025;-85
2022/06/24 08:21:42;;;;;;;5.70;2.35;;;;;;;18.85;100.00;98561.22;7394272;19;20006;-85
2022/06/24 08:24:09;;;;;;;7.35;2.00;;;;;;;18.90;100.00;98557.47;7394441;19;20015;-85
2022/06/24 08:26:36;;;;;;;7.03;2.13;;;;;;;18.91;100.00;98563.84;7390778;19;20389;-86
2022/06/24 08:29:02;;;;;;;9.75;1.85;;;;;;;18.90;100.00;98556.69;7391929;19;20460;-85
2022/06/24 08:31:28;;;;;;;6.97;2.50;;;;;;;18.92;100.00;98559.72;7389723;19;20424;-85
2022/06/24 08:33:55;;;;;;;6.75;2.97;;;;;;;18.92;100.00;98560.47;7394597;19;20014;-85
2022/06/24 08:36:26;;;;;;;6.80;2.22;;;;;;;18.99;100.00;98553.31;7390155;19;20022;-84
2022/06/24 08:38:55;;;;;;;5.55;2.67;;;;;;;19.09;100.00;98551.41;7393315;19;20077;-85
2022/06/24 08:41:24;;;;;;;7.30;1.92;;;;;;;19.17;100.00;98557.03;7393829;19;20015;-85
2022/06/24 08:43:52;;;;;;;8.07;2.88;;;;;;;19.22;100.00;98551.22;7394980;19;20011;-85
2022/06/24 08:46:19;;;;;;;6.28;2.72;;;;;;;19.25;100.00;98546.53;7394008;19;20355;-85
2022/06/24 08:48:46;;;;;;;6.03;2.40;;;;;;;19.20;100.00;98551.03;7393296;19;20054;-84
2022/06/24 08:51:13;;;;;;;5.80;2.10;;;;;;;19.12;100.00;98539.00;7389766;19;20082;-85
2022/06/24 08:53:40;;;;;;;8.68;2.55;;;;;;;19.08;100.00;98538.63;7391157;19;20011;-85
2022/06/24 08:56:07;;;;;;;10.93;2.67;;;;;;;19.11;100.00;98543.13;7389633;19;20015;-85
2022/06/24 08:58:35;;;;;;;11.20;2.65;;;;;;;19.09;100.00;98536.56;7392327;19;20031;-84
2022/06/24 09:01:01;;;;;;;7.60;1.90;;;;;;;19.10;100.00;98538.81;7391206;19;20018;-84
2022/06/24 09:03:28;;;;;;;9.20;3.22;;;;;;;19.05;100.00;98534.13;7391758;19;20010;-85
2022/06/24 09:05:54;;;;;;;13.15;2.33;;;;;;;18.99;100.00;98542.03;7393254;19;20038;-85
2022/06/24 09:08:20;;;;;;;6.30;2.30;;;;;;;19.01;100.00;98536.56;7391666;19;20066;-84
2022/06/24 09:11:06;;;;;;;6.15;1.85;;;;;;;19.01;100.00;98533.75;7389217;19;20376;-85
2022/06/24 09:13:47;;;;;;;4.70;2.60;;;;;;;18.99;100.00;98527.94;7391209;19;20015;-85
2022/06/24 09:16:17;;;;;;;10.65;4.03;;;;;;;18.95;100.00;98524.69;7395611;19;20531;-84
2022/06/24 09:19:01;;;;;;;3.93;2.13;;;;;;;18.91;100.00;98525.09;7400201;19;20011;-84
2022/06/24 09:21:30;;;;;;;9.98;3.70;;;;;;;18.93;100.00;98521.69;7399200;19;20014;-84
2022/06/24 09:23:59;;;;;;;9.23;2.83;;;;;;;18.88;100.00;98526.22;7400308;19;20018;-84
2022/06/24 09:26:43;;;;;;;10.15;3.45;;;;;;;18.85;100.00;98515.31;7398585;19;20479;-85
2022/06/24 09:29:14;;;;;;;13.30;3.38;;;;;;;18.86;100.00;98511.19;7398711;19;20022;-84
2022/06/24 09:31:40;;;;;;;15.45;2.80;;;;;;;18.88;100.00;98514.19;7396842;19;20398;-84
2022/06/24 09:34:16;;;;;;;9.32;3.47;;;;;;;18.90;100.00;98511.56;7397315;19;20041;-84
2022/06/24 09:36:45;;;;;;;8.10;3.72;;;;;;;18.85;100.00;98509.69;7396398;19;20026;-85
2022/06/24 09:39:16;;;;;;;10.90;3.92;;;;;;;18.77;100.00;98508.94;7399667;19;20495;-84
2022/06/24 09:41:42;;;;;;;;;;;;;;;18.72;100.00;98502.16;7398824;19;20018;-85
2022/06/24 09:44:09;;;;;;;14.48;4.40;;;;;;;18.68;100.00;98501.03;7398217;19;19947;-85
2022/06/24 09:46:35;;;;;;;9.35;3.28;;;;;;;18.63;100.00;98508.38;7397669;19;20023;-84
2022/06/24 09:49:06;;;;;;;9.32;4.38;;;;;;;18.76;100.00;98496.13;7398237;19;20078;-84
2022/06/24 09:51:33;;;;;;;13.50;3.83;;;;;;;18.90;100.00;98497.47;7396342;19;20078;-83
2022/06/24 09:54:01;;;;;;;15.95;3.72;;;;;;;18.95;100.00;98484.47;7394603;19;20111;-85
2022/06/24 09:56:28;;;;;;;16.63;4.85;;;;;;;19.03;100.00;98488.78;7393313;19;20010;-84
2022/06/24 10:01:42;;;;;;;22.80;4.25;;;;;;;19.11;100.00;98489.53;7398035;19;20024;-84
2022/06/24 10:04:18;;;;;;;11.02;3.90;;;;;;;19.09;100.00;98494.97;7396927;19;20108;-85
2022/06/24 10:06:49;;;;;;;19.85;4.85;;;;;;;19.06;100.00;98496.09;7396518;19;20010;-84
2022/06/24 10:09:18;;;;;;;;;;;;;;;18.97;100.00;98493.88;7396497;19;20468;-85
2022/06/24 10:11:47;;;;;;;13.45;4.22;;;;;;;19.02;100.00;98495.75;7395143;19;19925;-85
2022/06/24 10:14:13;;;;;;;9.70;3.20;;;;;;;18.98;100.00;98495.38;7394924;19;20472;-84
2022/06/24 10:16:42;;;;;;;22.42;4.97;;;;;;;18.96;100.00;98500.81;7394648;19;20011;-84
2022/06/24 10:19:12;;;;;;;16.20;4.80;;;;;;;18.92;100.00;98503.28;7399563;19;20547;-84
2022/06/24 10:21:39;;;;;;;10.77;3.77;;;;;;;18.91;100.00;98496.13;7395386;19;20024;-84
2022/06/24 10:24:14;;;;;;;10.65;4.43;;;;;;;18.98;100.00;98500.25;7395832;19;20030;-85
2022/06/24 10:26:47;;;;;;;13.32;3.58;;;;;;;18.99;100.00;98502.53;7392270;19;20026;-85
2022/06/24 10:29:13;;;;;;;12.30;3.72;;;;;;;19.09;100.00;98494.22;7395674;19;20014;-84
2022/06/24 10:31:42;;;;;;;17.10;5.65;;;;;;;19.28;100.00;98495.31;7394402;19;20018;-85
2022/06/24 10:34:13;;;;;;;7.22;3.72;;;;;;;19.46;100.00;98494.16;7394349;19;20013;-85
2022/06/24 10:36:39;;;;;;;14.50;3.58;;;;;;;19.51;100.00;98496.00;7394156;19;20118;-84
2022/06/24 10:39:15;;;;;;;14.00;4.95;;;;;;;19.55;100.00;98484.34;7397253;19;20026;-84
2022/06/24 10:41:42;;;;;;;11.00;3.70;;;;;;;19.64;100.00;98487.31;7397085;19;20015;-84
2022/06/24 10:44:28;;;;;;;28.42;6.32;;;;;;;19.66;100.00;98484.66;7396626;19;20011;-84
2022/06/24 10:47:12;;;;;;;17.38;4.93;;;;;;;19.85;100.00;98483.47;7394456;19;20701;-85
2022/06/24 10:49:50;;;;;;;7.78;3.70;;;;;;;20.06;100.00;98481.06;7397099;19;20041;-84
2022/06/24 10:52:39;;;;;;;11.98;3.50;;;;;;;20.21;100.00;98476.13;7393882;19;20046;-85
2022/06/24 10:57:47;;;;;;;11.68;3.70;;;;;;;20.49;100.00;98479.91;7394780;19;20029;-84
2022/06/24 11:00:20;;;;;;;11.63;3.95;;;;;;;20.80;100.00;98478.31;7401965;19;20022;-86
2022/06/24 11:03:06;;;;;;;10.52;3.47;;;;;;;21.28;100.00;98485.22;7397976;19;20027;-85
2022/06/24 11:05:38;;;;;;;9.88;3.38;;;;;;;21.64;100.00;98476.88;7392663;19;20021;-84
2022/06/24 11:08:12;;;;;;;10.40;3.17;;;;;;;22.08;100.00;98476.88;7393461;19;20018;-84
2022/06/24 11:10:39;;;;;;;10.85;4.38;;;;;;;22.70;100.00;98471.81;7391762;19;20030;-85
2022/06/24 11:13:05;;;;;;;6.70;3.42;;;;;;;22.99;100.00;98464.09;7392825;19;20049;-85
2022/06/24 11:15:42;;;;;;;9.65;2.65;;;;;;;23.17;100.00;98469.06;7393848;19;20046;-85
2022/06/24 11:18:11;;;;;;;6.00;2.30;;;;;;;23.19;100.00;98468.47;7393609;19;20018;-85
2022/06/24 11:21:04;;;;;;;9.05;2.85;;;;;;;22.94;100.00;98467.97;7393630;19;20018;-85
2022/06/24 11:23:33;;;;;;;7.20;2.45;;;;;;;22.84;100.00;98470.06;7391710;19;20086;-86
2022/06/24 11:26:02;;;;;;;9.48;2.65;;;;;;;22.90;100.00;98467.66;7391625;19;20018;-86
2022/06/24 11:28:34;;;;;;;6.47;2.20;;;;;;;22.74;100.00;98472.13;7394069;19;20022;-85
2022/06/24 11:31:23;;;;;;;6.38;2.53;;;;;;;22.49;100.00;98470.22;7391123;19;20393;-86
2022/06/24 11:34:06;;;;;;;10.65;3.72;;;;;;;22.28;100.00;98463.56;7393762;19;20488;-85
2022/06/24 11:36:33;;;;;;;5.40;3.10;;;;;;;22.74;100.00;98457.94;7392481;19;20014;-85
2022/06/24 11:39:05;;;;;;;7.63;2.80;;;;;;;23.51;100.00;98445.34;7394930;19;20015;-85